Terminal Aerodrome Forecast
Issued by NWS

Home | Current Version | Previous Version | Text Only | Print | Product List | Glossary On
Versions: 1 2 3 4 5 6 7 8 9 10 11 12 13 14 15 16 17 18 19 20 21
000
FTUS43 KIND 281725
TAFBMG
TAF
KBMG 281725Z 2818/2918 24013KT P6SM VCTS BKN025CB
     FM281900 25014KT P6SM VCTS BKN040CB
     FM290100 26008KT P6SM VCTS BKN150CB
     FM290300 27005KT P6SM SCT200=

USA.gov is the U.S. government's official web portal to all federal, state and local government web resources and services.